EWG98F LKPR-EDDK
Flight info
| Callsign | EWG98F |
|---|---|
| Flight time | 0h 55m |
| Altitude | 34000 |
| Route | BALTU DCT DONAD DCT RAPET T843 DEMAB T842 EBANA T841 ERNEP ERNEP2C |
| Aircraft | A20N/M-SDE2E3FGHIRWXY/LB1 |
Departure
| Time | 2026-05-07 17:29 |
|---|---|
| Airport | Václav Havel Airport Prague (LKPR) |
Arrival
| Time | 2026-05-07 18:25 |
|---|---|
| Airport | Cologne Bonn Airport (EDDK) |
| Time | Latitude | Longitude | Altitude | Speed | Heading |
|---|---|---|---|---|---|
| 2026-05-07 16:52 | 50.10441 | 14.26589 | 1169 ft | 0 kts | 34° |
| 2026-05-07 16:53 | 50.10437 | 14.26586 | 1174 ft | 0 kts | 34° |
| 2026-05-07 17:17 | 50.10435 | 14.26583 | 1173 ft | 3 kts | 34° |
| 2026-05-07 17:17 | 50.10417 | 14.26565 | 1170 ft | 3 kts | 24° |
| 2026-05-07 17:17 | 50.10400 | 14.26557 | 1172 ft | 3 kts | 326° |
| 2026-05-07 17:18 | 50.10395 | 14.26563 | 1172 ft | 1 kts | 304° |
| 2026-05-07 17:22 | 50.10417 | 14.26511 | 1171 ft | 15 kts | 304° |
| 2026-05-07 17:22 | 50.10495 | 14.26334 | 1171 ft | 20 kts | 304° |
| 2026-05-07 17:22 | 50.10540 | 14.26193 | 1173 ft | 15 kts | 274° |
| 2026-05-07 17:22 | 50.10523 | 14.26039 | 1174 ft | 12 kts | 265° |
| 2026-05-07 17:23 | 50.10497 | 14.25998 | 1172 ft | 4 kts | 174° |
| 2026-05-07 17:23 | 50.10454 | 14.26067 | 1175 ft | 17 kts | 123° |
| 2026-05-07 17:23 | 50.10373 | 14.26237 | 1174 ft | 22 kts | 127° |
| 2026-05-07 17:23 | 50.10279 | 14.26435 | 1175 ft | 24 kts | 127° |
| 2026-05-07 17:24 | 50.10175 | 14.26647 | 1177 ft | 25 kts | 127° |
| 2026-05-07 17:24 | 50.10078 | 14.26848 | 1187 ft | 22 kts | 127° |
| 2026-05-07 17:24 | 50.09993 | 14.27025 | 1197 ft | 19 kts | 127° |
| 2026-05-07 17:24 | 50.09914 | 14.27187 | 1201 ft | 19 kts | 127° |
| 2026-05-07 17:25 | 50.09829 | 14.27349 | 1203 ft | 20 kts | 136° |
| 2026-05-07 17:25 | 50.09730 | 14.27499 | 1205 ft | 20 kts | 135° |
| 2026-05-07 17:25 | 50.09639 | 14.27642 | 1209 ft | 16 kts | 135° |
| 2026-05-07 17:25 | 50.09559 | 14.27768 | 1211 ft | 17 kts | 135° |
| 2026-05-07 17:26 | 50.09474 | 14.27897 | 1215 ft | 17 kts | 136° |
| 2026-05-07 17:26 | 50.09385 | 14.28032 | 1214 ft | 19 kts | 136° |
| 2026-05-07 17:26 | 50.09283 | 14.28188 | 1214 ft | 22 kts | 134° |
| 2026-05-07 17:26 | 50.09176 | 14.28281 | 1211 ft | 14 kts | 198° |
| 2026-05-07 17:27 | 50.09138 | 14.28252 | 1211 ft | 0 kts | 213° |
| 2026-05-07 17:27 | 50.09137 | 14.28251 | 1211 ft | 1 kts | 213° |
| 2026-05-07 17:27 | 50.09100 | 14.28208 | 1210 ft | 11 kts | 219° |
| 2026-05-07 17:28 | 50.09066 | 14.28131 | 1208 ft | 8 kts | 279° |
| 2026-05-07 17:28 | 50.09075 | 14.28105 | 1208 ft | 0 kts | 305° |
| 2026-05-07 17:29 | 50.09095 | 14.28063 | 1208 ft | 29 kts | 306° |
| 2026-05-07 17:29 | 50.09393 | 14.27446 | 1209 ft | 110 kts | 307° |
| 2026-05-07 17:29 | 50.09987 | 14.26230 | 1296 ft | 165 kts | 306° |
| 2026-05-07 17:29 | 50.10754 | 14.24694 | 1878 ft | 192 kts | 307° |
| 2026-05-07 17:30 | 50.11619 | 14.22936 | 2607 ft | 217 kts | 307° |
| 2026-05-07 17:30 | 50.12574 | 14.20938 | 3181 ft | 241 kts | 306° |
| 2026-05-07 17:30 | 50.13601 | 14.18766 | 3774 ft | 257 kts | 306° |
| 2026-05-07 17:30 | 50.14685 | 14.16503 | 4753 ft | 261 kts | 305° |
| 2026-05-07 17:31 | 50.15787 | 14.14216 | 5668 ft | 267 kts | 305° |
| 2026-05-07 17:31 | 50.16910 | 14.11881 | 6609 ft | 271 kts | 304° |
| 2026-05-07 17:31 | 50.18052 | 14.09507 | 7506 ft | 276 kts | 304° |
| 2026-05-07 17:31 | 50.19207 | 14.07103 | 8428 ft | 279 kts | 304° |
| 2026-05-07 17:32 | 50.20384 | 14.04650 | 9323 ft | 284 kts | 304° |
| 2026-05-07 17:32 | 50.21545 | 14.02224 | 10178 ft | 289 kts | 303° |
| 2026-05-07 17:32 | 50.22502 | 13.99297 | 10652 ft | 304 kts | 282° |
| 2026-05-07 17:32 | 50.22642 | 13.95926 | 10953 ft | 322 kts | 264° |
| 2026-05-07 17:33 | 50.22528 | 13.92360 | 11577 ft | 332 kts | 266° |
| 2026-05-07 17:33 | 50.22480 | 13.88747 | 12472 ft | 334 kts | 267° |
| 2026-05-07 17:33 | 50.22444 | 13.85154 | 13288 ft | 337 kts | 267° |
| 2026-05-07 17:33 | 50.22401 | 13.81469 | 14068 ft | 341 kts | 267° |
| 2026-05-07 17:34 | 50.22349 | 13.77758 | 14788 ft | 345 kts | 267° |
| 2026-05-07 17:34 | 50.22289 | 13.73969 | 15519 ft | 349 kts | 266° |
| 2026-05-07 17:34 | 50.22224 | 13.70165 | 15883 ft | 352 kts | 266° |
| 2026-05-07 17:34 | 50.22157 | 13.66334 | 15996 ft | 352 kts | 266° |
| 2026-05-07 17:35 | 50.22088 | 13.62503 | 16048 ft | 354 kts | 267° |
| 2026-05-07 17:35 | 50.22017 | 13.58648 | 16567 ft | 356 kts | 266° |
| 2026-05-07 17:35 | 50.21945 | 13.54785 | 17388 ft | 357 kts | 266° |
| 2026-05-07 17:35 | 50.21871 | 13.50895 | 18087 ft | 361 kts | 266° |
| 2026-05-07 17:36 | 50.21794 | 13.46958 | 18720 ft | 364 kts | 267° |
| 2026-05-07 17:36 | 50.21717 | 13.43030 | 19331 ft | 367 kts | 267° |
| 2026-05-07 17:36 | 50.21638 | 13.39036 | 19933 ft | 370 kts | 267° |
| 2026-05-07 17:36 | 50.21556 | 13.35001 | 20547 ft | 373 kts | 267° |
| 2026-05-07 17:37 | 50.21472 | 13.30945 | 21123 ft | 377 kts | 267° |
| 2026-05-07 17:37 | 50.21386 | 13.26839 | 21725 ft | 380 kts | 267° |
| 2026-05-07 17:37 | 50.21298 | 13.22686 | 22300 ft | 383 kts | 267° |
| 2026-05-07 17:37 | 50.21207 | 13.18506 | 22876 ft | 386 kts | 267° |
| 2026-05-07 17:38 | 50.21114 | 13.14291 | 23454 ft | 390 kts | 267° |
| 2026-05-07 17:38 | 50.21019 | 13.10051 | 23956 ft | 393 kts | 267° |
| 2026-05-07 17:38 | 50.20922 | 13.05785 | 24448 ft | 395 kts | 267° |
| 2026-05-07 17:38 | 50.20822 | 13.01486 | 24921 ft | 398 kts | 267° |
| 2026-05-07 17:39 | 50.20721 | 12.97157 | 25387 ft | 401 kts | 267° |
| 2026-05-07 17:39 | 50.20617 | 12.92785 | 25840 ft | 403 kts | 267° |
| 2026-05-07 17:39 | 50.20512 | 12.88448 | 26265 ft | 406 kts | 267° |
| 2026-05-07 17:39 | 50.20403 | 12.84033 | 26691 ft | 409 kts | 267° |
| 2026-05-07 17:40 | 50.20291 | 12.79590 | 27114 ft | 411 kts | 267° |
| 2026-05-07 17:40 | 50.20177 | 12.75098 | 27529 ft | 414 kts | 267° |
| 2026-05-07 17:40 | 50.20061 | 12.70588 | 27893 ft | 417 kts | 267° |
| 2026-05-07 17:40 | 50.19942 | 12.66054 | 28012 ft | 419 kts | 267° |
| 2026-05-07 17:41 | 50.19699 | 12.56960 | 28057 ft | 420 kts | 267° |
| 2026-05-07 17:41 | 50.19575 | 12.52439 | 28482 ft | 421 kts | 267° |
| 2026-05-07 17:41 | 50.19448 | 12.47837 | 28905 ft | 422 kts | 267° |
| 2026-05-07 17:42 | 50.19320 | 12.43275 | 29277 ft | 425 kts | 267° |
| 2026-05-07 17:42 | 50.19192 | 12.38655 | 29647 ft | 427 kts | 268° |
| 2026-05-07 17:42 | 50.19290 | 12.34022 | 29996 ft | 430 kts | 275° |
| 2026-05-07 17:42 | 50.19751 | 12.29420 | 30316 ft | 432 kts | 281° |
| 2026-05-07 17:43 | 50.20481 | 12.24816 | 30603 ft | 435 kts | 283° |
| 2026-05-07 17:43 | 50.21214 | 12.20222 | 30889 ft | 437 kts | 282° |
| 2026-05-07 17:43 | 50.21941 | 12.15599 | 31199 ft | 439 kts | 282° |
| 2026-05-07 17:43 | 50.22668 | 12.10957 | 31573 ft | 439 kts | 282° |
| 2026-05-07 17:44 | 50.23392 | 12.06319 | 31968 ft | 438 kts | 282° |
| 2026-05-07 17:44 | 50.24114 | 12.01686 | 32354 ft | 438 kts | 282° |
| 2026-05-07 17:44 | 50.24818 | 11.97160 | 32740 ft | 437 kts | 282° |
| 2026-05-07 17:44 | 50.25548 | 11.92462 | 33107 ft | 437 kts | 282° |
| 2026-05-07 17:45 | 50.26256 | 11.87912 | 33476 ft | 436 kts | 282° |
| 2026-05-07 17:45 | 50.26972 | 11.83306 | 33835 ft | 435 kts | 282° |
| 2026-05-07 17:45 | 50.27683 | 11.78713 | 34003 ft | 435 kts | 282° |
| 2026-05-07 17:45 | 50.28392 | 11.74122 | 34020 ft | 434 kts | 282° |
| 2026-05-07 17:46 | 50.29800 | 11.64949 | 34024 ft | 433 kts | 282° |
| 2026-05-07 17:46 | 50.31199 | 11.55747 | 34029 ft | 434 kts | 281° |
| 2026-05-07 17:47 | 50.32561 | 11.46584 | 34029 ft | 434 kts | 281° |
| 2026-05-07 17:47 | 50.33927 | 11.37346 | 34033 ft | 435 kts | 281° |
| 2026-05-07 17:48 | 50.35287 | 11.28111 | 34042 ft | 435 kts | 281° |
| 2026-05-07 17:48 | 50.36640 | 11.18866 | 34044 ft | 436 kts | 281° |
| 2026-05-07 17:49 | 50.37993 | 11.09589 | 34046 ft | 436 kts | 281° |
| 2026-05-07 17:49 | 50.39330 | 11.00364 | 34047 ft | 436 kts | 281° |
| 2026-05-07 17:50 | 50.40658 | 10.91151 | 33470 ft | 431 kts | 281° |
| 2026-05-07 17:50 | 50.41316 | 10.86562 | 32715 ft | 433 kts | 282° |
| 2026-05-07 17:50 | 50.41976 | 10.81941 | 32201 ft | 432 kts | 282° |
| 2026-05-07 17:51 | 50.42636 | 10.77303 | 32062 ft | 441 kts | 282° |
| 2026-05-07 17:51 | 50.43309 | 10.72564 | 32037 ft | 443 kts | 282° |
| 2026-05-07 17:51 | 50.44659 | 10.63153 | 32042 ft | 442 kts | 282° |
| 2026-05-07 17:52 | 50.46007 | 10.53840 | 31619 ft | 440 kts | 282° |
| 2026-05-07 17:52 | 50.46680 | 10.49151 | 31110 ft | 442 kts | 282° |
| 2026-05-07 17:52 | 50.47354 | 10.44431 | 30611 ft | 443 kts | 282° |
| 2026-05-07 17:53 | 50.48016 | 10.39720 | 30113 ft | 440 kts | 282° |
| 2026-05-07 17:53 | 50.48673 | 10.35027 | 29528 ft | 436 kts | 282° |
| 2026-05-07 17:53 | 50.49317 | 10.30402 | 28965 ft | 430 kts | 282° |
| 2026-05-07 17:53 | 50.49950 | 10.25850 | 28415 ft | 425 kts | 282° |
| 2026-05-07 17:54 | 50.50580 | 10.21305 | 27866 ft | 423 kts | 282° |
| 2026-05-07 17:54 | 50.51197 | 10.16845 | 27340 ft | 421 kts | 282° |
| 2026-05-07 17:54 | 50.51815 | 10.12371 | 26818 ft | 417 kts | 282° |
| 2026-05-07 17:54 | 50.52426 | 10.07926 | 26297 ft | 413 kts | 282° |
| 2026-05-07 17:55 | 50.53030 | 10.03523 | 25785 ft | 411 kts | 281° |
| 2026-05-07 17:55 | 50.53629 | 9.99143 | 25295 ft | 408 kts | 281° |
| 2026-05-07 17:55 | 50.54223 | 9.94791 | 24776 ft | 405 kts | 282° |
| 2026-05-07 17:55 | 50.55097 | 9.90601 | 24206 ft | 403 kts | 293° |
| 2026-05-07 17:56 | 50.56194 | 9.86569 | 23640 ft | 400 kts | 291° |
| 2026-05-07 17:56 | 50.57242 | 9.82523 | 23021 ft | 396 kts | 291° |
| 2026-05-07 17:56 | 50.58273 | 9.78533 | 22448 ft | 392 kts | 291° |
| 2026-05-07 17:56 | 50.59308 | 9.74573 | 21870 ft | 389 kts | 291° |
| 2026-05-07 17:57 | 50.60340 | 9.70663 | 21306 ft | 385 kts | 292° |
| 2026-05-07 17:57 | 50.61021 | 9.68092 | 20931 ft | 383 kts | 292° |
| 2026-05-07 17:57 | 50.62374 | 9.62989 | 20205 ft | 378 kts | 292° |
| 2026-05-07 17:57 | 50.63384 | 9.59180 | 19671 ft | 375 kts | 292° |
| 2026-05-07 17:58 | 50.64384 | 9.55404 | 19140 ft | 372 kts | 292° |
| 2026-05-07 17:58 | 50.65376 | 9.51649 | 18617 ft | 369 kts | 292° |
| 2026-05-07 17:58 | 50.66361 | 9.47914 | 18064 ft | 366 kts | 292° |
| 2026-05-07 17:58 | 50.67332 | 9.44226 | 17624 ft | 363 kts | 292° |
| 2026-05-07 17:59 | 50.68298 | 9.40549 | 17201 ft | 363 kts | 292° |
| 2026-05-07 17:59 | 50.69262 | 9.36877 | 16742 ft | 360 kts | 292° |
| 2026-05-07 17:59 | 50.70211 | 9.33251 | 16345 ft | 357 kts | 292° |
| 2026-05-07 17:59 | 50.71161 | 9.29621 | 15930 ft | 356 kts | 292° |
| 2026-05-07 18:00 | 50.72088 | 9.26074 | 15534 ft | 354 kts | 292° |
| 2026-05-07 18:00 | 50.73034 | 9.22446 | 15127 ft | 352 kts | 292° |
| 2026-05-07 18:00 | 50.73950 | 9.18927 | 14742 ft | 350 kts | 292° |
| 2026-05-07 18:00 | 50.74871 | 9.15383 | 14353 ft | 348 kts | 292° |
| 2026-05-07 18:01 | 50.75784 | 9.11866 | 13968 ft | 346 kts | 292° |
| 2026-05-07 18:01 | 50.76708 | 9.08300 | 13555 ft | 344 kts | 292° |
| 2026-05-07 18:01 | 50.77598 | 9.04860 | 13103 ft | 341 kts | 292° |
| 2026-05-07 18:01 | 50.78489 | 9.01411 | 12596 ft | 339 kts | 292° |
| 2026-05-07 18:02 | 50.80255 | 8.94556 | 11563 ft | 334 kts | 292° |
| 2026-05-07 18:02 | 50.81125 | 8.91172 | 11189 ft | 328 kts | 292° |
| 2026-05-07 18:02 | 50.81977 | 8.87854 | 11078 ft | 329 kts | 292° |
| 2026-05-07 18:03 | 50.82846 | 8.84469 | 11067 ft | 334 kts | 292° |
| 2026-05-07 18:03 | 50.83717 | 8.81069 | 11058 ft | 332 kts | 292° |
| 2026-05-07 18:03 | 50.84583 | 8.77681 | 11064 ft | 332 kts | 292° |
| 2026-05-07 18:03 | 50.85446 | 8.74300 | 11066 ft | 332 kts | 292° |
| 2026-05-07 18:04 | 50.86311 | 8.70908 | 11066 ft | 332 kts | 292° |
| 2026-05-07 18:04 | 50.86883 | 8.68658 | 11066 ft | 332 kts | 292° |
| 2026-05-07 18:04 | 50.88028 | 8.64154 | 11069 ft | 333 kts | 292° |
| 2026-05-07 18:04 | 50.88890 | 8.60756 | 11066 ft | 332 kts | 292° |
| 2026-05-07 18:05 | 50.89752 | 8.57354 | 11067 ft | 333 kts | 292° |
| 2026-05-07 18:05 | 50.90322 | 8.55103 | 11065 ft | 333 kts | 292° |
| 2026-05-07 18:05 | 50.91190 | 8.51664 | 11065 ft | 332 kts | 292° |
| 2026-05-07 18:05 | 50.92327 | 8.47158 | 11062 ft | 333 kts | 292° |
| 2026-05-07 18:06 | 50.92897 | 8.44897 | 11058 ft | 333 kts | 292° |
| 2026-05-07 18:06 | 50.93756 | 8.41480 | 11057 ft | 333 kts | 292° |
| 2026-05-07 18:06 | 50.94605 | 8.38098 | 11063 ft | 333 kts | 292° |
| 2026-05-07 18:06 | 50.95468 | 8.34661 | 11059 ft | 333 kts | 292° |
| 2026-05-07 18:07 | 50.96322 | 8.31253 | 11057 ft | 332 kts | 292° |
| 2026-05-07 18:07 | 50.97073 | 8.27794 | 11060 ft | 332 kts | 285° |
| 2026-05-07 18:07 | 50.97521 | 8.24187 | 11056 ft | 333 kts | 278° |
| 2026-05-07 18:07 | 50.97862 | 8.20541 | 11055 ft | 334 kts | 279° |
| 2026-05-07 18:08 | 50.98217 | 8.16907 | 11056 ft | 333 kts | 279° |
| 2026-05-07 18:08 | 50.98570 | 8.13324 | 11058 ft | 333 kts | 279° |
| 2026-05-07 18:08 | 50.98931 | 8.09644 | 11056 ft | 333 kts | 279° |
| 2026-05-07 18:08 | 50.99286 | 8.06015 | 11055 ft | 333 kts | 279° |
| 2026-05-07 18:09 | 50.99636 | 8.02398 | 11054 ft | 333 kts | 279° |
| 2026-05-07 18:09 | 50.99988 | 7.98744 | 11055 ft | 333 kts | 279° |
| 2026-05-07 18:09 | 51.00335 | 7.95125 | 10891 ft | 330 kts | 279° |
| 2026-05-07 18:09 | 51.00679 | 7.91534 | 10510 ft | 329 kts | 279° |
| 2026-05-07 18:10 | 51.01017 | 7.87982 | 10312 ft | 318 kts | 279° |
| 2026-05-07 18:10 | 51.01337 | 7.84612 | 10190 ft | 305 kts | 279° |
| 2026-05-07 18:10 | 51.01646 | 7.81345 | 10071 ft | 293 kts | 279° |
| 2026-05-07 18:10 | 51.01942 | 7.78207 | 9861 ft | 283 kts | 279° |
| 2026-05-07 18:11 | 51.02231 | 7.75143 | 9481 ft | 280 kts | 278° |
| 2026-05-07 18:11 | 51.02520 | 7.72076 | 9089 ft | 278 kts | 278° |
| 2026-05-07 18:11 | 51.02804 | 7.69047 | 8704 ft | 276 kts | 278° |
| 2026-05-07 18:11 | 51.03085 | 7.66043 | 8318 ft | 274 kts | 278° |
| 2026-05-07 18:12 | 51.03364 | 7.63042 | 7930 ft | 273 kts | 278° |
| 2026-05-07 18:12 | 51.03637 | 7.60107 | 7553 ft | 271 kts | 278° |
| 2026-05-07 18:12 | 51.03910 | 7.57157 | 7187 ft | 269 kts | 278° |
| 2026-05-07 18:12 | 51.04180 | 7.54227 | 6829 ft | 267 kts | 278° |
| 2026-05-07 18:13 | 51.04449 | 7.51305 | 6462 ft | 266 kts | 278° |
| 2026-05-07 18:13 | 51.04715 | 7.48409 | 6082 ft | 265 kts | 278° |
| 2026-05-07 18:13 | 51.04978 | 7.45520 | 5690 ft | 264 kts | 279° |
| 2026-05-07 18:13 | 51.05239 | 7.42657 | 5287 ft | 264 kts | 279° |
| 2026-05-07 18:14 | 51.05501 | 7.39779 | 5021 ft | 258 kts | 279° |
| 2026-05-07 18:14 | 51.05752 | 7.37006 | 4912 ft | 246 kts | 279° |
| 2026-05-07 18:14 | 51.05991 | 7.34370 | 4811 ft | 235 kts | 279° |
| 2026-05-07 18:14 | 51.06220 | 7.31826 | 4575 ft | 232 kts | 279° |
| 2026-05-07 18:15 | 51.06449 | 7.29289 | 4267 ft | 232 kts | 279° |
| 2026-05-07 18:15 | 51.06675 | 7.26770 | 4040 ft | 226 kts | 279° |
| 2026-05-07 18:15 | 51.06898 | 7.24278 | 4004 ft | 233 kts | 279° |
| 2026-05-07 18:15 | 51.07128 | 7.21708 | 4002 ft | 231 kts | 279° |
| 2026-05-07 18:16 | 51.07345 | 7.19268 | 3998 ft | 215 kts | 279° |
| 2026-05-07 18:16 | 51.07548 | 7.16959 | 4004 ft | 212 kts | 279° |
| 2026-05-07 18:16 | 51.07751 | 7.14675 | 4007 ft | 211 kts | 279° |
| 2026-05-07 18:16 | 51.07877 | 7.12379 | 3995 ft | 197 kts | 269° |
| 2026-05-07 18:17 | 51.07784 | 7.10277 | 3853 ft | 191 kts | 265° |
| 2026-05-07 18:17 | 51.07374 | 7.08300 | 3644 ft | 186 kts | 244° |
| 2026-05-07 18:17 | 51.06768 | 7.06472 | 3231 ft | 190 kts | 243° |
| 2026-05-07 18:17 | 51.06156 | 7.04631 | 3020 ft | 185 kts | 243° |
| 2026-05-07 18:18 | 51.05582 | 7.02899 | 2999 ft | 169 kts | 243° |
| 2026-05-07 18:18 | 51.05030 | 7.01242 | 3003 ft | 172 kts | 243° |
| 2026-05-07 18:18 | 51.04474 | 6.99574 | 3005 ft | 170 kts | 243° |
| 2026-05-07 18:18 | 51.03918 | 6.97911 | 3000 ft | 171 kts | 243° |
| 2026-05-07 18:19 | 51.03353 | 6.96251 | 2979 ft | 171 kts | 239° |
| 2026-05-07 18:19 | 51.02499 | 6.94982 | 2896 ft | 171 kts | 203° |
| 2026-05-07 18:19 | 51.01356 | 6.94764 | 2815 ft | 162 kts | 168° |
| 2026-05-07 18:19 | 51.00351 | 6.95372 | 2746 ft | 149 kts | 148° |
| 2026-05-07 18:20 | 50.99513 | 6.96310 | 2664 ft | 148 kts | 139° |
| 2026-05-07 18:20 | 50.98743 | 6.97358 | 2618 ft | 143 kts | 136° |
| 2026-05-07 18:20 | 50.98014 | 6.98417 | 2557 ft | 144 kts | 135° |
| 2026-05-07 18:20 | 50.97274 | 6.99494 | 2493 ft | 144 kts | 135° |
| 2026-05-07 18:21 | 50.96542 | 7.00560 | 2426 ft | 143 kts | 135° |
| 2026-05-07 18:21 | 50.95802 | 7.01638 | 2310 ft | 144 kts | 135° |
| 2026-05-07 18:21 | 50.95066 | 7.02704 | 2146 ft | 143 kts | 136° |
| 2026-05-07 18:21 | 50.94336 | 7.03767 | 1971 ft | 142 kts | 135° |
| 2026-05-07 18:22 | 50.93625 | 7.04802 | 1786 ft | 140 kts | 135° |
| 2026-05-07 18:22 | 50.93155 | 7.05485 | 1666 ft | 140 kts | 135° |
| 2026-05-07 18:22 | 50.92194 | 7.06883 | 1404 ft | 141 kts | 136° |
| 2026-05-07 18:22 | 50.91475 | 7.07927 | 1202 ft | 140 kts | 136° |
| 2026-05-07 18:23 | 50.90755 | 7.08973 | 1011 ft | 140 kts | 136° |
| 2026-05-07 18:23 | 50.90037 | 7.10015 | 793 ft | 140 kts | 135° |
| 2026-05-07 18:23 | 50.89332 | 7.11040 | 562 ft | 136 kts | 136° |
| 2026-05-07 18:23 | 50.88636 | 7.12054 | 393 ft | 135 kts | 135° |
| 2026-05-07 18:24 | 50.87934 | 7.13070 | 258 ft | 136 kts | 136° |
| 2026-05-07 18:24 | 50.87328 | 7.13956 | 241 ft | 83 kts | 137° |
| 2026-05-07 18:24 | 50.87022 | 7.14407 | 254 ft | 56 kts | 139° |
| 2026-05-07 18:24 | 50.86753 | 7.14796 | 268 ft | 50 kts | 137° |
| 2026-05-07 18:25 | 50.86504 | 7.15146 | 279 ft | 44 kts | 141° |
| 2026-05-07 18:25 | 50.86289 | 7.15313 | 287 ft | 14 kts | 168° |
| 2026-05-07 18:25 | 50.86220 | 7.15336 | 290 ft | 6 kts | 168° |
| 2026-05-07 18:25 | 50.86173 | 7.15352 | 291 ft | 8 kts | 167° |
| 2026-05-07 18:26 | 50.86124 | 7.15357 | 290 ft | 5 kts | 190° |
| 2026-05-07 18:26 | 50.86101 | 7.15346 | 290 ft | 4 kts | 200° |
| 2026-05-07 18:26 | 50.86063 | 7.15317 | 292 ft | 8 kts | 205° |
| 2026-05-07 18:26 | 50.86038 | 7.15257 | 292 ft | 7 kts | 281° |
| 2026-05-07 18:27 | 50.86054 | 7.15135 | 289 ft | 18 kts | 281° |
| 2026-05-07 18:27 | 50.86119 | 7.15031 | 286 ft | 14 kts | 318° |
| 2026-05-07 18:27 | 50.86207 | 7.14905 | 283 ft | 19 kts | 316° |
| 2026-05-07 18:27 | 50.86308 | 7.14757 | 277 ft | 17 kts | 317° |
| 2026-05-07 18:28 | 50.86406 | 7.14611 | 271 ft | 22 kts | 317° |
| 2026-05-07 18:28 | 50.86524 | 7.14441 | 264 ft | 25 kts | 317° |
| 2026-05-07 18:28 | 50.86652 | 7.14256 | 260 ft | 25 kts | 318° |
| 2026-05-07 18:28 | 50.86779 | 7.14125 | 255 ft | 17 kts | 327° |
| 2026-05-07 18:29 | 50.86875 | 7.13989 | 254 ft | 20 kts | 318° |
| 2026-05-07 18:29 | 50.86998 | 7.13816 | 243 ft | 27 kts | 317° |
| 2026-05-07 18:29 | 50.87140 | 7.13611 | 238 ft | 21 kts | 317° |
| 2026-05-07 18:29 | 50.87251 | 7.13444 | 236 ft | 26 kts | 317° |
| 2026-05-07 18:30 | 50.87411 | 7.13219 | 232 ft | 28 kts | 317° |
| 2026-05-07 18:30 | 50.87539 | 7.13030 | 232 ft | 17 kts | 317° |
| 2026-05-07 18:30 | 50.87634 | 7.12895 | 232 ft | 20 kts | 318° |
| 2026-05-07 18:30 | 50.87740 | 7.12744 | 232 ft | 19 kts | 317° |
| 2026-05-07 18:31 | 50.87769 | 7.12650 | 232 ft | 8 kts | 270° |
| 2026-05-07 18:31 | 50.87765 | 7.12611 | 232 ft | 0 kts | 256° |
| 2026-05-07 18:32 | 50.87764 | 7.12608 | 232 ft | 2 kts | 259° |
| 2026-05-07 18:32 | 50.87799 | 7.12575 | 232 ft | 9 kts | 13° |
| 2026-05-07 18:33 | 50.87866 | 7.12598 | 232 ft | 6 kts | 17° |
| 2026-05-07 18:33 | 50.87892 | 7.12578 | 232 ft | 4 kts | 294° |
| 2026-05-07 18:33 | 50.87903 | 7.12519 | 232 ft | 5 kts | 288° |
| 2026-05-07 18:33 | 50.87908 | 7.12494 | 233 ft | 0 kts | 288° |
| 2026-05-07 18:34 | 50.87910 | 7.12485 | 234 ft | 0 kts | 288° |